createdAt,value
2018-12-12T00:00:29.017Z,0.00
2018-12-12T00:01:29.044Z,0.00
2018-12-12T00:02:29.065Z,0.00
2018-12-12T00:03:29.092Z,0.00
2018-12-12T00:04:29.116Z,0.00
2018-12-12T00:05:29.139Z,0.00
2018-12-12T00:06:29.163Z,0.00
2018-12-12T00:07:29.189Z,0.00
2018-12-12T00:08:29.212Z,0.00
2018-12-12T00:09:29.237Z,0.00
2018-12-12T00:10:29.262Z,0.00
2018-12-12T00:11:29.292Z,0.00
2018-12-12T00:12:29.311Z,0.00
2018-12-12T00:13:29.336Z,0.00
2018-12-12T00:14:29.363Z,0.00
2018-12-12T00:15:29.387Z,0.00
2018-12-12T00:16:29.413Z,0.00
2018-12-12T00:17:29.437Z,0.00
2018-12-12T00:18:29.462Z,0.00
2018-12-12T00:19:29.486Z,0.00
2018-12-12T00:20:29.511Z,0.00
2018-12-12T00:21:29.536Z,0.00
2018-12-12T00:22:29.560Z,0.00
2018-12-12T00:23:29.586Z,0.00
2018-12-12T00:24:29.610Z,0.00
2018-12-12T00:25:29.633Z,0.00
2018-12-12T00:26:29.657Z,0.00
2018-12-12T00:27:29.683Z,0.00
2018-12-12T00:28:29.709Z,0.00
2018-12-12T00:29:29.729Z,0.00
2018-12-12T00:30:29.756Z,0.00
2018-12-12T00:31:29.786Z,0.00
2018-12-12T00:32:29.804Z,0.00
2018-12-12T00:33:29.827Z,0.00
2018-12-12T00:34:29.855Z,0.00
2018-12-12T00:35:29.877Z,0.00
2018-12-12T00:36:29.907Z,0.00
2018-12-12T00:37:29.930Z,0.00
2018-12-12T00:38:29.959Z,0.00
2018-12-12T00:39:29.976Z,0.00
2018-12-12T00:40:30.003Z,0.00
2018-12-12T00:41:30.025Z,0.00
2018-12-12T00:42:30.050Z,0.00
2018-12-12T00:43:30.078Z,0.00
2018-12-12T00:44:30.102Z,0.00
2018-12-12T00:45:30.126Z,0.00
2018-12-12T00:46:30.150Z,0.00
2018-12-12T00:47:30.174Z,0.00
2018-12-12T00:48:30.203Z,0.00
2018-12-12T00:49:30.222Z,0.00
2018-12-12T00:50:30.247Z,0.00
2018-12-12T00:51:30.271Z,0.00
2018-12-12T00:52:30.299Z,0.00
2018-12-12T00:53:30.321Z,0.00
2018-12-12T00:54:30.347Z,0.00
2018-12-12T00:55:30.370Z,0.00
2018-12-12T00:56:30.395Z,0.00
2018-12-12T00:57:30.418Z,0.00
2018-12-12T00:58:30.445Z,0.00
2018-12-12T00:59:30.468Z,0.00
2018-12-12T01:00:30.499Z,0.00
2018-12-12T01:01:30.519Z,0.00
2018-12-12T01:02:30.542Z,0.00
2018-12-12T01:03:30.570Z,0.00
2018-12-12T01:04:30.595Z,0.00
2018-12-12T01:05:30.616Z,0.00
2018-12-12T01:06:30.642Z,0.00
2018-12-12T01:07:30.668Z,0.00
2018-12-12T01:08:30.693Z,0.00
2018-12-12T01:09:30.715Z,0.00
2018-12-12T01:10:30.746Z,0.00
2018-12-12T01:11:30.765Z,0.00
2018-12-12T01:12:30.788Z,0.00
2018-12-12T01:13:30.816Z,0.00
2018-12-12T01:14:30.841Z,0.00
2018-12-12T01:15:30.862Z,0.00
2018-12-12T01:16:30.888Z,0.00
2018-12-12T01:17:30.913Z,0.00
2018-12-12T01:18:30.940Z,0.00
2018-12-12T01:19:30.961Z,0.00
2018-12-12T01:20:30.989Z,0.00
2018-12-12T01:21:31.013Z,0.00
2018-12-12T01:22:31.034Z,0.00
2018-12-12T01:23:31.064Z,0.00
2018-12-12T01:24:31.084Z,0.00
2018-12-12T01:25:31.112Z,0.00
2018-12-12T01:26:31.132Z,0.00
2018-12-12T01:27:31.158Z,0.00
2018-12-12T01:28:31.182Z,0.00
2018-12-12T01:29:31.207Z,0.00
2018-12-12T01:30:31.231Z,0.00
2018-12-12T01:31:31.259Z,0.00
2018-12-12T01:32:31.284Z,0.00
2018-12-12T01:33:31.307Z,0.00
2018-12-12T01:34:31.331Z,0.00
2018-12-12T01:35:31.356Z,0.00
2018-12-12T01:36:31.379Z,0.00
2018-12-12T01:37:31.403Z,0.00
2018-12-12T01:38:31.434Z,0.00
2018-12-12T01:39:31.453Z,0.00
2018-12-12T01:40:31.480Z,0.00
2018-12-12T01:41:31.502Z,0.00
2018-12-12T01:42:31.527Z,0.00
2018-12-12T01:43:31.554Z,0.00
2018-12-12T01:44:31.582Z,0.00
2018-12-12T01:45:31.604Z,0.00
2018-12-12T01:46:31.625Z,0.00
2018-12-12T01:47:31.654Z,0.00
2018-12-12T01:48:31.677Z,0.00
2018-12-12T01:49:31.707Z,0.00
2018-12-12T01:50:31.725Z,0.00
2018-12-12T01:51:31.753Z,0.00
2018-12-12T01:52:31.777Z,0.00
2018-12-12T01:53:33.117Z,0.00
2018-12-12T01:54:31.824Z,0.00
2018-12-12T01:55:31.848Z,0.00
2018-12-12T01:56:31.872Z,0.00
2018-12-12T01:57:31.900Z,0.00
2018-12-12T01:58:31.920Z,0.00
2018-12-12T01:59:31.953Z,0.00
2018-12-12T02:00:31.975Z,0.00
2018-12-12T02:01:32.023Z,0.00
2018-12-12T02:02:32.025Z,0.00
2018-12-12T02:03:32.045Z,0.00
2018-12-12T02:04:32.071Z,0.00
2018-12-12T02:05:32.099Z,0.00
2018-12-12T02:06:32.121Z,0.00
2018-12-12T02:07:32.144Z,0.00
2018-12-12T02:08:32.169Z,0.00
2018-12-12T02:09:32.194Z,0.00
2018-12-12T02:10:32.218Z,0.00
2018-12-12T02:11:32.251Z,0.00
2018-12-12T02:12:32.265Z,0.00
2018-12-12T02:13:32.290Z,0.00
2018-12-12T02:14:32.316Z,0.00
2018-12-12T02:15:32.339Z,0.00
2018-12-12T02:16:32.366Z,0.00
2018-12-12T02:17:32.393Z,0.00
2018-12-12T02:18:32.416Z,0.00
2018-12-12T02:19:32.442Z,0.00
2018-12-12T02:20:32.520Z,0.00
2018-12-12T02:21:32.497Z,0.00
2018-12-12T02:22:32.514Z,0.00
2018-12-12T02:23:32.539Z,0.00
2018-12-12T02:24:32.564Z,0.00
2018-12-12T02:25:32.588Z,0.00
2018-12-12T02:26:32.615Z,0.00
2018-12-12T02:27:32.638Z,0.00
2018-12-12T02:28:32.663Z,0.00
2018-12-12T02:29:32.686Z,0.00
2018-12-12T02:30:32.712Z,0.00
2018-12-12T02:31:32.739Z,0.00
2018-12-12T02:32:32.762Z,0.00
2018-12-12T02:33:32.784Z,0.00
2018-12-12T02:34:32.811Z,0.00
2018-12-12T02:35:32.836Z,0.00
2018-12-12T02:36:32.859Z,0.00
2018-12-12T02:37:32.884Z,0.00
2018-12-12T02:38:32.909Z,0.00
2018-12-12T02:39:32.934Z,0.00
2018-12-12T02:40:32.961Z,0.00
2018-12-12T02:41:32.982Z,0.00
2018-12-12T02:42:33.008Z,0.00
2018-12-12T02:43:33.049Z,0.00
2018-12-12T02:44:33.056Z,0.00
2018-12-12T02:45:33.088Z,0.00
2018-12-12T02:46:33.110Z,0.00
2018-12-12T02:47:33.131Z,0.00
2018-12-12T02:48:33.158Z,0.00
2018-12-12T02:49:33.178Z,0.00
2018-12-12T02:50:33.205Z,0.00
2018-12-12T02:51:33.231Z,0.00
2018-12-12T02:52:33.254Z,0.00
2018-12-12T02:53:33.279Z,0.00
2018-12-12T02:54:33.304Z,0.00
2018-12-12T02:55:33.332Z,0.00
2018-12-12T02:56:33.354Z,0.00
2018-12-12T02:57:33.377Z,0.00
2018-12-12T02:58:33.405Z,0.00
2018-12-12T02:59:33.474Z,0.00
2018-12-12T03:00:33.456Z,0.00
2018-12-12T03:01:33.477Z,0.00
2018-12-12T03:02:33.499Z,0.00
2018-12-12T03:03:33.530Z,0.00
2018-12-12T03:04:33.551Z,0.00
2018-12-12T03:05:33.575Z,0.00
2018-12-12T03:06:33.597Z,0.00
2018-12-12T03:07:33.627Z,0.00
2018-12-12T03:08:33.651Z,0.00
2018-12-12T03:09:33.671Z,0.00
2018-12-12T03:10:33.718Z,0.00
2018-12-12T03:11:33.723Z,0.00
2018-12-12T03:12:33.750Z,0.00
2018-12-12T03:13:33.772Z,0.00
2018-12-12T03:14:33.798Z,0.00
2018-12-12T03:15:33.826Z,0.00
2018-12-12T03:16:33.847Z,0.00
2018-12-12T03:17:33.874Z,0.00
2018-12-12T03:18:33.895Z,0.00
2018-12-12T03:19:33.919Z,0.00
2018-12-12T03:20:33.949Z,0.00
2018-12-12T03:21:33.968Z,0.00
2018-12-12T03:22:33.995Z,0.00
2018-12-12T03:23:34.018Z,0.00
2018-12-12T03:24:34.046Z,0.00
2018-12-12T03:25:34.070Z,0.00
2018-12-12T03:26:34.092Z,0.00
2018-12-12T03:27:34.116Z,0.00
2018-12-12T03:28:34.155Z,0.00
2018-12-12T03:29:34.166Z,0.00
2018-12-12T03:30:34.191Z,0.00
2018-12-12T03:31:34.222Z,0.00
2018-12-12T03:32:34.246Z,0.00
2018-12-12T03:33:34.263Z,0.00
2018-12-12T03:34:34.291Z,0.00
2018-12-12T03:35:34.315Z,0.00
2018-12-12T03:36:34.341Z,0.00
2018-12-12T03:37:34.362Z,0.00
2018-12-12T03:38:34.388Z,0.00
2018-12-12T03:39:34.413Z,0.00
2018-12-12T03:40:34.437Z,0.00
2018-12-12T03:41:34.462Z,0.00
2018-12-12T03:42:34.488Z,0.00
2018-12-12T03:43:34.572Z,0.00
2018-12-12T03:44:34.536Z,0.00
2018-12-12T03:45:34.560Z,0.00
2018-12-12T03:46:34.586Z,0.00
2018-12-12T03:47:34.609Z,0.00
2018-12-12T03:48:34.685Z,0.00
2018-12-12T03:49:34.658Z,0.00
2018-12-12T03:50:34.683Z,0.00
2018-12-12T03:51:34.719Z,0.00
2018-12-12T03:52:34.733Z,0.00
2018-12-12T03:53:34.757Z,0.00
2018-12-12T03:54:34.791Z,0.00
2018-12-12T03:55:34.807Z,0.00
2018-12-12T03:56:34.835Z,0.00
2018-12-12T03:57:34.862Z,0.00
2018-12-12T03:58:34.903Z,0.00
2018-12-12T03:59:34.908Z,0.00
2018-12-12T04:00:34.932Z,0.00
2018-12-12T04:01:34.955Z,0.00
2018-12-12T04:02:34.980Z,0.00
2018-12-12T04:03:35.006Z,0.00
2018-12-12T04:04:35.030Z,0.00
2018-12-12T04:05:35.054Z,0.00
2018-12-12T04:06:35.080Z,0.00
2018-12-12T04:07:35.105Z,0.00
2018-12-12T04:08:35.127Z,0.00
2018-12-12T04:09:35.152Z,0.00
2018-12-12T04:10:35.175Z,0.00
2018-12-12T04:11:35.210Z,0.00
2018-12-12T04:12:35.227Z,0.00
2018-12-12T04:13:35.251Z,0.00
2018-12-12T04:14:35.277Z,0.00
2018-12-12T04:15:35.300Z,0.00
2018-12-12T04:16:35.331Z,0.00
2018-12-12T04:17:35.350Z,0.00
2018-12-12T04:18:35.374Z,0.00
2018-12-12T04:19:35.399Z,0.00
2018-12-12T04:20:35.425Z,0.00
2018-12-12T04:21:35.448Z,0.00
2018-12-12T04:22:35.473Z,0.00
2018-12-12T04:23:35.499Z,0.00
2018-12-12T04:24:35.522Z,0.00
2018-12-12T04:25:35.547Z,0.00
2018-12-12T04:26:35.579Z,0.00
2018-12-12T04:27:35.596Z,0.00
2018-12-12T04:28:35.624Z,0.00
2018-12-12T04:29:35.644Z,0.00
2018-12-12T04:30:35.676Z,0.00
2018-12-12T04:31:35.696Z,0.00
2018-12-12T04:32:35.720Z,0.00
2018-12-12T04:33:35.743Z,0.00
2018-12-12T04:34:35.768Z,0.00
2018-12-12T04:35:35.798Z,0.00
2018-12-12T04:36:35.822Z,0.00
2018-12-12T04:37:35.845Z,0.00
2018-12-12T04:38:35.866Z,0.00
2018-12-12T04:39:35.896Z,0.00
2018-12-12T04:40:35.917Z,0.00
2018-12-12T04:41:35.940Z,0.00
2018-12-12T04:42:35.969Z,0.00
2018-12-12T04:43:35.996Z,0.00
2018-12-12T04:44:36.014Z,0.00
2018-12-12T04:45:36.038Z,0.00
2018-12-12T04:46:36.063Z,0.00
2018-12-12T04:47:36.090Z,0.00
2018-12-12T04:48:36.114Z,0.00
2018-12-12T04:49:36.138Z,0.00
2018-12-12T04:50:36.162Z,0.00
2018-12-12T04:51:36.186Z,0.00
2018-12-12T04:52:36.214Z,0.00
2018-12-12T04:53:36.245Z,0.00
2018-12-12T04:54:36.265Z,0.00
2018-12-12T04:55:36.285Z,0.00
2018-12-12T04:56:36.312Z,0.00
2018-12-12T04:57:36.339Z,0.00
2018-12-12T04:58:36.360Z,0.00
2018-12-12T04:59:36.386Z,0.00
2018-12-12T05:00:36.409Z,0.00
2018-12-12T05:01:36.438Z,0.00
2018-12-12T05:02:36.461Z,0.00
2018-12-12T05:03:36.482Z,0.00
2018-12-12T05:04:36.513Z,0.00
2018-12-12T05:05:36.533Z,0.00
2018-12-12T05:06:36.557Z,0.00
2018-12-12T05:07:36.583Z,0.00
2018-12-12T05:08:36.610Z,0.00
2018-12-12T05:09:36.632Z,0.00
2018-12-12T05:10:36.656Z,0.00
2018-12-12T05:11:36.685Z,0.00
2018-12-12T05:12:36.707Z,0.00
2018-12-12T05:13:36.733Z,0.00
2018-12-12T05:14:36.754Z,0.00
2018-12-12T05:15:36.780Z,0.00
2018-12-12T05:16:36.804Z,0.00
2018-12-12T05:17:36.831Z,0.00
2018-12-12T05:18:36.854Z,0.00
2018-12-12T05:19:36.880Z,0.00
2018-12-12T05:20:36.904Z,0.00
2018-12-12T05:21:36.928Z,0.00
2018-12-12T05:22:36.952Z,0.00
2018-12-12T05:23:36.979Z,0.00
2018-12-12T05:24:37.002Z,0.00
2018-12-12T05:25:37.030Z,0.00
2018-12-12T05:26:37.051Z,0.00
2018-12-12T05:27:37.078Z,0.00
2018-12-12T05:28:37.100Z,0.00
2018-12-12T05:29:37.126Z,0.00
2018-12-12T05:30:37.149Z,0.00
2018-12-12T05:31:37.178Z,0.00
2018-12-12T05:32:37.200Z,0.00
2018-12-12T05:33:37.224Z,0.00
2018-12-12T05:34:37.247Z,0.00
2018-12-12T05:35:37.272Z,0.00
2018-12-12T05:36:37.301Z,0.00
2018-12-12T05:37:37.322Z,0.00
2018-12-12T05:38:37.348Z,0.00
2018-12-12T05:39:37.371Z,0.00
2018-12-12T05:40:37.394Z,0.00
2018-12-12T05:41:37.422Z,0.00
2018-12-12T05:42:37.445Z,0.00
2018-12-12T05:43:37.473Z,0.00
2018-12-12T05:44:37.498Z,0.00
2018-12-12T05:45:37.527Z,0.00
2018-12-12T05:46:41.766Z,0.00
2018-12-12T05:47:37.571Z,0.00
2018-12-12T05:48:37.595Z,0.00
2018-12-12T05:49:37.619Z,0.00
2018-12-12T05:50:37.642Z,0.00
2018-12-12T05:51:37.666Z,0.00
2018-12-12T05:52:37.694Z,0.00
2018-12-12T05:53:37.715Z,0.00
2018-12-12T05:54:37.743Z,0.00
2018-12-12T05:55:37.767Z,0.00
2018-12-12T05:56:37.790Z,0.00
2018-12-12T05:57:37.815Z,0.00
2018-12-12T05:58:37.840Z,0.00
2018-12-12T05:59:37.865Z,0.00
2018-12-12T06:00:37.892Z,0.00
2018-12-12T06:01:38.005Z,0.00
2018-12-12T06:02:37.936Z,0.00
2018-12-12T06:03:37.964Z,0.00
2018-12-12T06:04:37.987Z,0.00
2018-12-12T06:05:38.011Z,0.00
2018-12-12T06:06:38.034Z,0.00
2018-12-12T06:07:38.059Z,0.00
2018-12-12T06:08:38.085Z,0.00
2018-12-12T06:09:38.110Z,0.00
2018-12-12T06:10:38.133Z,0.00
2018-12-12T06:11:38.913Z,0.00
2018-12-12T06:12:38.185Z,0.00
2018-12-12T06:13:38.207Z,0.00
2018-12-12T06:14:38.231Z,0.00
2018-12-12T06:15:38.257Z,0.00
2018-12-12T06:16:38.281Z,0.00
2018-12-12T06:17:38.304Z,0.00
2018-12-12T06:18:38.331Z,0.00
2018-12-12T06:19:38.353Z,0.00
2018-12-12T06:20:38.380Z,0.00
2018-12-12T06:21:38.402Z,4.00
2018-12-12T06:22:38.436Z,4.00
2018-12-12T06:23:38.453Z,0.00
2018-12-12T06:24:38.476Z,0.00
2018-12-12T06:25:38.501Z,4.00
2018-12-12T06:26:38.525Z,4.00
2018-12-12T06:27:38.551Z,4.00
2018-12-12T06:28:38.576Z,4.00
2018-12-12T06:29:38.599Z,4.00
2018-12-12T06:30:38.628Z,8.00
2018-12-12T06:31:38.651Z,8.00
2018-12-12T06:32:38.675Z,8.00
2018-12-12T06:33:38.696Z,12.00
2018-12-12T06:34:38.722Z,12.00
2018-12-12T06:35:38.745Z,12.00
2018-12-12T06:36:38.772Z,20.00
2018-12-12T06:37:38.794Z,24.00
2018-12-12T06:38:38.819Z,24.00
2018-12-12T06:39:38.843Z,24.00
2018-12-12T06:40:38.871Z,32.00
2018-12-12T06:41:38.895Z,36.00
2018-12-12T06:42:38.917Z,28.00
2018-12-12T06:43:38.941Z,28.00
2018-12-12T06:44:38.972Z,28.00
2018-12-12T06:45:38.989Z,36.00
2018-12-12T06:46:39.013Z,32.00
2018-12-12T06:47:39.038Z,36.00
2018-12-12T06:48:39.065Z,40.00
2018-12-12T06:49:39.090Z,40.00
2018-12-12T06:50:39.112Z,44.00
2018-12-12T06:51:39.135Z,48.00
2018-12-12T06:52:39.165Z,56.00
2018-12-12T06:53:39.186Z,60.00
2018-12-12T06:54:39.210Z,68.00
2018-12-12T06:55:39.235Z,76.00
2018-12-12T06:56:39.260Z,88.00
2018-12-12T06:57:39.282Z,92.00
2018-12-12T06:58:39.310Z,92.00
2018-12-12T06:59:39.331Z,100.00
2018-12-12T07:00:39.359Z,112.00
2018-12-12T07:01:39.380Z,136.00
2018-12-12T07:02:39.407Z,144.00
2018-12-12T07:03:39.429Z,152.00
2018-12-12T07:04:39.452Z,160.00
2018-12-12T07:05:39.476Z,164.00
2018-12-12T07:06:39.504Z,176.00
2018-12-12T07:07:39.525Z,184.00
2018-12-12T07:08:39.550Z,204.00
2018-12-12T07:09:39.573Z,204.00
2018-12-12T07:10:39.600Z,192.00
2018-12-12T07:11:39.622Z,204.00
2018-12-12T07:12:39.647Z,264.00
2018-12-12T07:13:39.675Z,300.00
2018-12-12T07:14:39.694Z,320.00
2018-12-12T07:15:39.719Z,332.00
2018-12-12T07:16:39.745Z,336.00
2018-12-12T07:17:39.769Z,344.00
2018-12-12T07:18:39.796Z,344.00
2018-12-12T07:19:39.819Z,388.00
2018-12-12T07:20:39.840Z,392.00
2018-12-12T07:21:39.864Z,392.00
2018-12-12T07:22:39.892Z,384.00
2018-12-12T07:23:39.916Z,416.00
2018-12-12T07:24:39.940Z,460.00
2018-12-12T07:25:39.960Z,460.00
2018-12-12T07:26:39.985Z,448.00
2018-12-12T07:27:40.010Z,476.00
2018-12-12T07:28:40.042Z,568.00
2018-12-12T07:29:40.061Z,540.00
2018-12-12T07:30:40.084Z,476.00
2018-12-12T07:31:40.108Z,492.00
2018-12-12T07:32:40.133Z,508.00
2018-12-12T07:33:40.155Z,616.00
2018-12-12T07:34:40.183Z,748.00
2018-12-12T07:35:40.206Z,800.00
2018-12-12T07:36:40.230Z,732.00
2018-12-12T07:37:40.252Z,696.00
2018-12-12T07:38:40.277Z,676.00
2018-12-12T07:39:40.300Z,700.00
2018-12-12T07:40:40.324Z,784.00
2018-12-12T07:41:40.347Z,884.00
2018-12-12T07:42:40.377Z,888.00
2018-12-12T07:43:40.399Z,856.00
2018-12-12T07:44:40.421Z,840.00
2018-12-12T07:45:40.445Z,1012.00
2018-12-12T07:46:40.475Z,1136.00
2018-12-12T07:47:40.493Z,1008.00
2018-12-12T07:48:40.520Z,900.00
2018-12-12T07:49:40.541Z,836.00
2018-12-12T07:50:40.569Z,828.00
2018-12-12T07:51:40.592Z,788.00
2018-12-12T07:52:40.620Z,748.00
2018-12-12T07:53:40.641Z,736.00
2018-12-12T07:54:40.662Z,744.00
2018-12-12T07:55:40.689Z,760.00
2018-12-12T07:56:40.713Z,792.00
2018-12-12T07:57:40.733Z,916.00
2018-12-12T07:58:40.758Z,964.00
2018-12-12T07:59:40.783Z,968.00
2018-12-12T08:00:40.810Z,896.00
2018-12-12T08:01:40.837Z,856.00
2018-12-12T08:02:40.854Z,928.00
2018-12-12T08:03:40.880Z,976.00
2018-12-12T08:04:40.908Z,876.00
2018-12-12T08:05:40.930Z,880.00
2018-12-12T08:06:40.955Z,920.00
2018-12-12T08:07:40.977Z,956.00
2018-12-12T08:08:41.003Z,1004.00
2018-12-12T08:09:41.023Z,1092.00
2018-12-12T08:10:41.051Z,1208.00
2018-12-12T08:11:41.073Z,1396.00
2018-12-12T08:12:41.099Z,1556.00
2018-12-12T08:13:41.125Z,1568.00
2018-12-12T08:14:41.145Z,1440.00
2018-12-12T08:15:41.171Z,1260.00
2018-12-12T08:16:41.195Z,1096.00
2018-12-12T08:17:41.217Z,1056.00
2018-12-12T08:18:41.242Z,1164.00
2018-12-12T08:19:41.266Z,1408.00
2018-12-12T08:20:41.290Z,1456.00
2018-12-12T08:21:41.314Z,1428.00
2018-12-12T08:22:41.340Z,1556.00
2018-12-12T08:23:41.361Z,1752.00
2018-12-12T08:24:41.385Z,1612.00
2018-12-12T08:25:41.410Z,1588.00
2018-12-12T08:26:41.436Z,1484.00
2018-12-12T08:27:41.459Z,1244.00
2018-12-12T08:28:41.482Z,1160.00
2018-12-12T08:29:41.505Z,1184.00
2018-12-12T08:30:41.530Z,1248.00
2018-12-12T08:31:41.556Z,1252.00
2018-12-12T08:32:41.582Z,1256.00
2018-12-12T08:33:41.602Z,1280.00
2018-12-12T08:34:41.627Z,1356.00
2018-12-12T08:35:41.650Z,1476.00
2018-12-12T08:36:41.674Z,1508.00
2018-12-12T08:37:41.698Z,1488.00
2018-12-12T08:38:41.723Z,1404.00
2018-12-12T08:39:41.746Z,1400.00
2018-12-12T08:40:41.773Z,1488.00
2018-12-12T08:41:41.796Z,1584.00
2018-12-12T08:42:41.818Z,1412.00
2018-12-12T08:43:41.843Z,1228.00
2018-12-12T08:44:41.867Z,1088.00
2018-12-12T08:45:41.895Z,1000.00
2018-12-12T08:46:41.916Z,1016.00
2018-12-12T08:47:41.938Z,1080.00
2018-12-12T08:48:41.963Z,1148.00
2018-12-12T08:49:41.989Z,1272.00
2018-12-12T08:50:42.013Z,1404.00
2018-12-12T08:51:42.041Z,1484.00
2018-12-12T08:52:42.060Z,1528.00
2018-12-12T08:53:42.083Z,1692.00
2018-12-12T08:54:42.106Z,1572.00
2018-12-12T08:55:42.131Z,1276.00
2018-12-12T08:56:42.154Z,1204.00
2018-12-12T08:57:42.179Z,1200.00
2018-12-12T08:58:42.203Z,1200.00
2018-12-12T08:59:42.226Z,1216.00
2018-12-12T09:00:42.252Z,1212.00
2018-12-12T09:01:42.274Z,1204.00
2018-12-12T09:02:42.301Z,1144.00
2018-12-12T09:03:42.322Z,1156.00
2018-12-12T09:04:42.347Z,1188.00
2018-12-12T09:05:42.374Z,1260.00
2018-12-12T09:06:42.396Z,1232.00
2018-12-12T09:07:42.420Z,1176.00
2018-12-12T09:08:42.442Z,1128.00
2018-12-12T09:09:42.465Z,1180.00
2018-12-12T09:10:42.547Z,1396.00
2018-12-12T09:11:42.513Z,1660.00
2018-12-12T09:12:42.536Z,2104.00
2018-12-12T09:13:42.562Z,2200.00
2018-12-12T09:14:42.585Z,2160.00
2018-12-12T09:15:42.608Z,2212.00
2018-12-12T09:16:42.634Z,2192.00
2018-12-12T09:17:42.653Z,2104.00
2018-12-12T09:18:42.678Z,2156.00
2018-12-12T09:19:42.704Z,2124.00
2018-12-12T09:20:42.728Z,2128.00
2018-12-12T09:21:42.756Z,2168.00
2018-12-12T09:22:42.775Z,2236.00
2018-12-12T09:23:42.798Z,2240.00
2018-12-12T09:24:42.830Z,2276.00
2018-12-12T09:25:42.845Z,2172.00
2018-12-12T09:26:42.874Z,2160.00
2018-12-12T09:27:42.898Z,2232.00
2018-12-12T09:28:42.919Z,2220.00
2018-12-12T09:29:42.944Z,1964.00
2018-12-12T09:30:42.966Z,1824.00
2018-12-12T09:31:42.989Z,1864.00
2018-12-12T09:32:43.018Z,1912.00
2018-12-12T09:33:43.044Z,1928.00
2018-12-12T09:34:43.062Z,1956.00
2018-12-12T09:35:43.085Z,2016.00
2018-12-12T09:36:43.112Z,2060.00
2018-12-12T09:37:43.134Z,2112.00
2018-12-12T09:38:43.162Z,2228.00
2018-12-12T09:39:43.185Z,2412.00
2018-12-12T09:40:43.210Z,2432.00
2018-12-12T09:41:43.229Z,2380.00
2018-12-12T09:42:43.255Z,2288.00
2018-12-12T09:43:43.281Z,2204.00
2018-12-12T09:44:43.301Z,2192.00
2018-12-12T09:45:43.327Z,2156.00
2018-12-12T09:46:43.350Z,2108.00
2018-12-12T09:47:43.375Z,1984.00
2018-12-12T09:48:43.398Z,1900.00
2018-12-12T09:49:43.425Z,1864.00
2018-12-12T09:50:43.446Z,1856.00
2018-12-12T09:51:43.473Z,1924.00
2018-12-12T09:52:43.497Z,1952.00
2018-12-12T09:53:43.521Z,2020.00
2018-12-12T09:54:43.544Z,2132.00
2018-12-12T09:55:43.567Z,2376.00
2018-12-12T09:56:43.591Z,2644.00
2018-12-12T09:57:43.614Z,2612.00
2018-12-12T09:58:43.638Z,2636.00
2018-12-12T09:59:43.664Z,2624.00
2018-12-12T10:00:43.687Z,2292.00
2018-12-12T10:01:43.761Z,2068.00
2018-12-12T10:02:43.734Z,2024.00
2018-12-12T10:03:43.759Z,2124.00
2018-12-12T10:04:43.784Z,2220.00
2018-12-12T10:05:43.808Z,2324.00
2018-12-12T10:06:43.830Z,2396.00
2018-12-12T10:07:43.857Z,2556.00
2018-12-12T10:08:43.881Z,2600.00
2018-12-12T10:09:43.902Z,2556.00
2018-12-12T10:10:43.934Z,2564.00
2018-12-12T10:11:43.951Z,2492.00
2018-12-12T10:12:43.977Z,2492.00
2018-12-12T10:13:44.018Z,2684.00
2018-12-12T10:14:44.025Z,2792.00
2018-12-12T10:15:44.050Z,2968.00
2018-12-12T10:16:44.076Z,3032.00
2018-12-12T10:17:44.095Z,2792.00
2018-12-12T10:18:44.119Z,2760.00
2018-12-12T10:19:44.144Z,2792.00
2018-12-12T10:20:44.169Z,3008.00
2018-12-12T10:21:44.190Z,3012.00
2018-12-12T10:22:44.214Z,2816.00
2018-12-12T10:23:44.242Z,2840.00
2018-12-12T10:24:44.264Z,3148.00
2018-12-12T10:25:44.287Z,3472.00
2018-12-12T10:26:44.312Z,3668.00
2018-12-12T10:27:44.336Z,3712.00
2018-12-12T10:28:44.362Z,3496.00
2018-12-12T10:29:44.383Z,3312.00
2018-12-12T10:30:44.410Z,3116.00
2018-12-12T10:31:44.431Z,3108.00
2018-12-12T10:32:44.457Z,3176.00
2018-12-12T10:33:44.479Z,3428.00
2018-12-12T10:34:44.506Z,3680.00
2018-12-12T10:35:44.528Z,3784.00
2018-12-12T10:36:44.555Z,3796.00
2018-12-12T10:37:44.576Z,3696.00
2018-12-12T10:38:44.601Z,3532.00
2018-12-12T10:39:44.630Z,3696.00
2018-12-12T10:40:44.651Z,3892.00
2018-12-12T10:41:44.673Z,4116.00
2018-12-12T10:42:44.699Z,4168.00
2018-12-12T10:43:44.722Z,4120.00
2018-12-12T10:44:44.747Z,4228.00
2018-12-12T10:45:44.778Z,3980.00
2018-12-12T10:46:44.795Z,3868.00
2018-12-12T10:47:44.823Z,3756.00
2018-12-12T10:48:44.845Z,3744.00
2018-12-12T10:49:44.868Z,3652.00
2018-12-12T10:50:44.893Z,3524.00
2018-12-12T10:51:46.346Z,3184.00
2018-12-12T10:52:44.941Z,3020.00
2018-12-12T10:53:44.964Z,2936.00
2018-12-12T10:54:44.990Z,2972.00
2018-12-12T10:55:45.016Z,2892.00
2018-12-12T10:56:45.039Z,2692.00
2018-12-12T10:57:45.064Z,2648.00
2018-12-12T10:58:45.088Z,2608.00
2018-12-12T10:59:45.112Z,2552.00
2018-12-12T11:00:45.139Z,2432.00
2018-12-12T11:01:45.161Z,2472.00
2018-12-12T11:02:45.186Z,2388.00
2018-12-12T11:03:45.212Z,2224.00
2018-12-12T11:04:45.234Z,2160.00
2018-12-12T11:05:45.274Z,2108.00
2018-12-12T11:06:45.282Z,2040.00
2018-12-12T11:07:45.312Z,1928.00
2018-12-12T11:08:45.333Z,1852.00
2018-12-12T11:09:45.356Z,1792.00
2018-12-12T11:10:45.380Z,1724.00
2018-12-12T11:11:45.406Z,1856.00
2018-12-12T11:12:45.430Z,1992.00
2018-12-12T11:13:45.452Z,1968.00
2018-12-12T11:14:45.484Z,1880.00
2018-12-12T11:15:45.503Z,1796.00
2018-12-12T11:16:45.526Z,1688.00
2018-12-12T11:17:45.552Z,1656.00
2018-12-12T11:18:45.573Z,1748.00
2018-12-12T11:19:45.599Z,1720.00
2018-12-12T11:20:45.624Z,1648.00
2018-12-12T11:21:45.648Z,1616.00
2018-12-12T11:22:45.677Z,1740.00
2018-12-12T11:23:45.696Z,1788.00
2018-12-12T11:24:45.721Z,1820.00
2018-12-12T11:25:45.746Z,1860.00
2018-12-12T11:26:45.769Z,1832.00
2018-12-12T11:27:45.794Z,1876.00
2018-12-12T11:28:45.819Z,1964.00
2018-12-12T11:29:45.844Z,1928.00
2018-12-12T11:30:45.872Z,1800.00
2018-12-12T11:31:45.889Z,1720.00
2018-12-12T11:32:45.921Z,1700.00
2018-12-12T11:33:50.493Z,1644.00
2018-12-12T11:34:45.966Z,1620.00
2018-12-12T11:35:45.990Z,1668.00
2018-12-12T11:36:46.014Z,1712.00
2018-12-12T11:37:46.039Z,1716.00
2018-12-12T11:38:46.059Z,1708.00
2018-12-12T11:39:46.082Z,1716.00
2018-12-12T11:40:46.110Z,1688.00
2018-12-12T11:41:46.135Z,1640.00
2018-12-12T11:42:46.157Z,1584.00
2018-12-12T11:43:46.180Z,1572.00
2018-12-12T11:44:46.208Z,1608.00
2018-12-12T11:45:46.231Z,1652.00
2018-12-12T11:46:46.256Z,1708.00
2018-12-12T11:47:46.276Z,1704.00
2018-12-12T11:48:46.299Z,1732.00
2018-12-12T11:49:46.373Z,1840.00
2018-12-12T11:50:46.350Z,1892.00
2018-12-12T11:51:46.372Z,1808.00
2018-12-12T11:52:46.397Z,1668.00
2018-12-12T11:53:46.420Z,1652.00
2018-12-12T11:54:46.445Z,1680.00
2018-12-12T11:55:46.469Z,1692.00
2018-12-12T11:56:46.492Z,1720.00
2018-12-12T11:57:46.517Z,1692.00
2018-12-12T11:58:46.541Z,1636.00
2018-12-12T11:59:46.567Z,1480.00
2018-12-12T12:00:46.592Z,1304.00
2018-12-12T12:01:46.611Z,1188.00
2018-12-12T12:02:46.639Z,1136.00
2018-12-12T12:03:46.666Z,1088.00
2018-12-12T12:04:46.686Z,1076.00
2018-12-12T12:05:46.709Z,1096.00
2018-12-12T12:06:46.732Z,1132.00
2018-12-12T12:07:46.758Z,1168.00
2018-12-12T12:08:46.785Z,1200.00
2018-12-12T12:09:46.806Z,1132.00
2018-12-12T12:10:46.832Z,1080.00
2018-12-12T12:11:46.853Z,1064.00
2018-12-12T12:12:46.880Z,1040.00
2018-12-12T12:13:46.901Z,1016.00
2018-12-12T12:14:46.924Z,1024.00
2018-12-12T12:15:46.953Z,1056.00
2018-12-12T12:16:46.973Z,1032.00
2018-12-12T12:17:46.999Z,1000.00
2018-12-12T12:18:47.022Z,992.00
2018-12-12T12:19:47.046Z,992.00
2018-12-12T12:20:47.070Z,964.00
2018-12-12T12:21:47.092Z,940.00
2018-12-12T12:22:47.118Z,948.00
2018-12-12T12:23:47.148Z,992.00
2018-12-12T12:24:47.165Z,1004.00
2018-12-12T12:25:47.189Z,924.00
2018-12-12T12:26:47.212Z,776.00
2018-12-12T12:27:47.240Z,700.00
2018-12-12T12:28:47.265Z,672.00
2018-12-12T12:29:47.326Z,660.00
2018-12-12T12:30:47.312Z,652.00
2018-12-12T12:31:47.333Z,616.00
2018-12-12T12:32:47.363Z,584.00
2018-12-12T12:33:47.384Z,572.00
2018-12-12T12:34:47.405Z,600.00
2018-12-12T12:35:47.430Z,620.00
2018-12-12T12:36:47.454Z,604.00
2018-12-12T12:37:47.477Z,588.00
2018-12-12T12:38:47.501Z,564.00
2018-12-12T12:39:47.525Z,532.00
2018-12-12T12:40:47.549Z,520.00
2018-12-12T12:41:47.574Z,528.00
2018-12-12T12:42:47.599Z,508.00
2018-12-12T12:43:47.624Z,464.00
2018-12-12T12:44:47.646Z,452.00
2018-12-12T12:45:47.672Z,444.00